Industry, Kansas
Current Conditions -  °F | °C
As of 3:13 PM on Saturday 25 Oct 2014 (Local Time) from KFRI Reporting Station
Clear Clear  
Wind Chill: 88°   Ceiling: Unl
Heat Index: 88°   Visibility: 7mi
Dew Point: 57°   Wind: 2mph
Humidity: 35%   Direction: NA
Pressure: 29.99"   Gusts: NA
Location:  39.0421°N, 97.1702°W
Report Text: KFRI 252013Z AUTO VRB02KT 7SM CLR 31/14 A2999 RMK AO2
Loading
Personal Weather Stations






























Interactive Weather Map
Tropical Storm Tracking
New forecast layout! Learn more

10-Day Weather Forecast

Advertisements
Track Severe Weather on mobile